Kununurra, Australia
Current Conditions -  °F | °C
As of 5:00 PM on Sunday 21 Dec 2014 (Local Time) from YPKU Reporting Station
Clear Clear  
Wind Chill: 84°   Ceiling: Unl
Heat Index: 92°   Visibility: 6mi
Dew Point: 75°   Wind: 8mph
Humidity: 74%   Direction: 100°E
Pressure: 29.68"   Gusts: NA
Location:  15.77°S, 128.74°E
Report Text: YPKU 210900Z AUTO 10007KT 9999 // NCD 29/24 Q1005
Loading
Personal Weather Stations






























Interactive Weather Map New forecast layout! Learn more

10-Day Weather Forecast

Advertisements
Track Severe Weather on mobile